New Shoreham, Rhode Island
Current Conditions -  °F | °C
As of 7:35 AM on Monday 20 Oct 2014 (Local Time) from KBID Reporting Station
Clear Clear  
Wind Chill: 40°   Ceiling: Unl
Heat Index: 43°   Visibility: 10mi
Dew Point: 27°   Wind: 5mph
Humidity: 53%   Direction: 290°WNW
Pressure: 30.08"   Gusts: NA
Location:  41.1768°N, 71.5785°W
Report Text: KBID 201135Z AUTO 29004KT 10SM CLR 06/M03 A3008 RMK AO1
Loading
Personal Weather Stations






























Interactive Weather Map
Tropical Storm Tracking
New forecast layout! Learn more

10-Day Weather Forecast

Advertisements
Track Severe Weather on mobile